createdAt,value
2023-01-27T00:00:53.167Z,6.10
2023-01-27T00:03:20.548Z,6.10
2023-01-27T00:05:47.942Z,6.10
2023-01-27T00:08:15.234Z,6.00
2023-01-27T00:10:42.451Z,6.00
2023-01-27T00:13:27.027Z,6.00
2023-01-27T00:15:56.542Z,6.00
2023-01-27T00:18:23.917Z,5.90
2023-01-27T00:21:09.551Z,5.90
2023-01-27T00:23:54.917Z,5.90
2023-01-27T00:26:21.733Z,5.90
2023-01-27T00:28:48.931Z,5.90
2023-01-27T00:31:35.631Z,5.90
2023-01-27T00:34:10.890Z,5.90
2023-01-27T00:36:40.234Z,5.90
2023-01-27T00:39:08.635Z,5.90
2023-01-27T00:41:36.112Z,5.90
2023-01-27T00:44:08.177Z,5.90
2023-01-27T00:46:35.051Z,5.90
2023-01-27T00:49:02.049Z,5.80
2023-01-27T00:51:29.033Z,5.80
2023-01-27T00:53:55.967Z,5.80
2023-01-27T00:56:27.251Z,5.80
2023-01-27T00:58:54.321Z,5.80
2023-01-27T01:01:21.186Z,5.80
2023-01-27T01:03:50.763Z,5.80
2023-01-27T01:06:18.469Z,5.80
2023-01-27T01:08:45.346Z,5.70
2023-01-27T01:11:15.880Z,5.70
2023-01-27T01:13:46.173Z,5.70
2023-01-27T01:16:17.469Z,5.60
2023-01-27T01:18:44.494Z,5.60
2023-01-27T01:21:14.599Z,5.60
2023-01-27T01:23:42.966Z,5.60
2023-01-27T01:26:11.403Z,5.60
2023-01-27T01:28:39.026Z,5.50
2023-01-27T01:31:14.864Z,5.50
2023-01-27T01:33:41.800Z,5.50
2023-01-27T01:36:11.750Z,5.50
2023-01-27T01:38:42.121Z,5.50
2023-01-27T01:41:12.630Z,5.50
2023-01-27T01:43:39.360Z,5.50
2023-01-27T01:46:08.738Z,5.40
2023-01-27T01:48:46.975Z,5.40
2023-01-27T01:51:20.285Z,5.40
2023-01-27T01:54:02.068Z,5.40
2023-01-27T01:56:37.422Z,5.40
2023-01-27T01:59:17.693Z,5.40
2023-01-27T02:01:45.225Z,5.40
2023-01-27T02:04:19.100Z,5.40
2023-01-27T02:06:54.942Z,5.40
2023-01-27T02:09:22.574Z,5.40
2023-01-27T02:11:49.982Z,5.40
2023-01-27T02:14:18.056Z,5.40
2023-01-27T02:16:45.326Z,5.40
2023-01-27T02:19:43.797Z,5.40
2023-01-27T02:22:19.584Z,5.40
2023-01-27T02:24:57.972Z,5.40
2023-01-27T02:27:24.758Z,5.30
2023-01-27T02:29:51.605Z,5.30
2023-01-27T02:32:26.292Z,5.30
2023-01-27T02:34:55.852Z,5.30
2023-01-27T02:37:24.110Z,5.30
2023-01-27T02:39:52.644Z,5.30
2023-01-27T02:42:19.844Z,5.30
2023-01-27T02:44:49.396Z,5.30
2023-01-27T02:47:16.249Z,5.30
2023-01-27T02:49:43.047Z,5.30
2023-01-27T02:52:09.899Z,5.30
2023-01-27T02:54:39.581Z,5.30
2023-01-27T02:57:06.343Z,5.30
2023-01-27T02:59:33.141Z,5.30
2023-01-27T03:02:00.066Z,5.30
2023-01-27T03:04:26.864Z,5.30
2023-01-27T03:06:53.686Z,5.30
2023-01-27T03:09:20.469Z,5.30
2023-01-27T03:12:05.701Z,5.30
2023-01-27T03:14:51.161Z,5.30
2023-01-27T03:17:36.305Z,5.30
2023-01-27T03:20:03.532Z,5.30
2023-01-27T03:22:30.270Z,5.30
2023-01-27T03:24:57.009Z,5.30
2023-01-27T03:27:23.745Z,5.20
2023-01-27T03:29:56.367Z,5.20
2023-01-27T03:32:24.482Z,5.20
2023-01-27T03:34:51.249Z,5.20
2023-01-27T03:37:36.792Z,5.20
2023-01-27T03:40:23.594Z,5.20
2023-01-27T03:43:12.011Z,5.20
2023-01-27T03:45:57.844Z,5.10
2023-01-27T03:48:24.916Z,5.10
2023-01-27T03:50:54.384Z,5.10
2023-01-27T03:53:21.245Z,5.10
2023-01-27T03:55:48.586Z,5.10
2023-01-27T03:58:27.801Z,5.10
2023-01-27T04:01:00.335Z,5.10
2023-01-27T04:03:49.050Z,5.10
2023-01-27T04:06:38.190Z,5.10
2023-01-27T04:09:06.784Z,5.10
2023-01-27T04:12:05.460Z,5.10
2023-01-27T04:14:41.972Z,5.10
2023-01-27T04:17:13.057Z,5.10
2023-01-27T04:19:42.405Z,5.10
2023-01-27T04:22:11.329Z,5.10
2023-01-27T04:24:38.214Z,5.10
2023-01-27T04:27:10.093Z,5.10
2023-01-27T04:29:41.118Z,5.10
2023-01-27T04:32:10.184Z,5.10
2023-01-27T04:34:43.312Z,5.10
2023-01-27T04:37:10.671Z,5.10
2023-01-27T04:39:37.910Z,5.10
2023-01-27T04:42:05.042Z,5.10
2023-01-27T04:44:31.802Z,5.10
2023-01-27T04:46:58.683Z,5.10
2023-01-27T04:49:27.135Z,5.10
2023-01-27T04:51:54.800Z,5.10
2023-01-27T04:54:21.935Z,5.10
2023-01-27T04:56:58.667Z,5.10
2023-01-27T04:59:26.178Z,5.10
2023-01-27T05:01:53.036Z,5.10
2023-01-27T05:04:22.992Z,5.10
2023-01-27T05:06:49.890Z,5.10
2023-01-27T05:09:16.717Z,5.10
2023-01-27T05:11:46.442Z,5.10
2023-01-27T05:14:16.940Z,5.10
2023-01-27T05:16:43.745Z,5.10
2023-01-27T05:19:10.949Z,5.10
2023-01-27T05:21:37.799Z,5.20
2023-01-27T05:24:04.821Z,5.20
2023-01-27T05:26:31.664Z,5.20
2023-01-27T05:28:59.334Z,5.20
2023-01-27T05:31:32.469Z,5.20
2023-01-27T05:34:00.790Z,5.20
2023-01-27T05:36:28.722Z,5.20
2023-01-27T05:38:56.373Z,5.20
2023-01-27T05:41:23.596Z,5.20
2023-01-27T05:43:55.133Z,5.20
2023-01-27T05:46:24.511Z,5.30
2023-01-27T05:48:53.855Z,5.30
2023-01-27T05:51:22.820Z,5.30
2023-01-27T05:53:49.974Z,5.30
2023-01-27T05:56:19.006Z,5.30
2023-01-27T05:58:46.209Z,5.30
2023-01-27T06:01:15.184Z,5.30
2023-01-27T06:03:45.973Z,5.30
2023-01-27T06:06:14.664Z,5.30
2023-01-27T06:08:42.173Z,5.30
2023-01-27T06:11:09.756Z,5.30
2023-01-27T06:13:38.713Z,5.30
2023-01-27T06:16:08.665Z,5.40
2023-01-27T06:18:36.621Z,5.30
2023-01-27T06:21:05.089Z,5.30
2023-01-27T06:23:32.754Z,5.40
2023-01-27T06:26:05.273Z,5.40
2023-01-27T06:28:32.006Z,5.40
2023-01-27T06:31:10.498Z,5.40
2023-01-27T06:33:37.872Z,5.40
2023-01-27T06:36:13.115Z,5.40
2023-01-27T06:38:39.942Z,5.40
2023-01-27T06:41:06.906Z,5.40
2023-01-27T06:43:34.462Z,5.40
2023-01-27T06:46:04.368Z,5.40
2023-01-27T06:48:32.943Z,5.40
2023-01-27T06:51:02.533Z,5.40
2023-01-27T06:53:29.368Z,5.40
2023-01-27T06:55:58.051Z,5.40
2023-01-27T06:58:25.307Z,5.40
2023-01-27T07:00:52.534Z,5.40
2023-01-27T07:03:19.547Z,5.40
2023-01-27T07:05:46.371Z,5.40
2023-01-27T07:08:13.319Z,5.40
2023-01-27T07:10:40.174Z,5.40
2023-01-27T07:13:08.762Z,5.40
2023-01-27T07:15:35.711Z,5.40
2023-01-27T07:18:02.998Z,5.40
2023-01-27T07:20:31.222Z,5.40
2023-01-27T07:23:03.214Z,5.40
2023-01-27T07:25:31.648Z,5.40
2023-01-27T07:27:59.534Z,5.40
2023-01-27T07:30:27.113Z,5.40
2023-01-27T07:32:55.289Z,5.40
2023-01-27T07:35:23.153Z,5.40
2023-01-27T07:37:49.936Z,5.40
2023-01-27T07:40:17.033Z,5.40
2023-01-27T07:42:43.989Z,5.40
2023-01-27T07:45:11.087Z,5.40
2023-01-27T07:47:37.948Z,5.40
2023-01-27T07:50:05.356Z,5.40
2023-01-27T07:52:32.141Z,5.40
2023-01-27T07:54:58.884Z,5.40
2023-01-27T07:57:25.809Z,5.40
2023-01-27T07:59:56.590Z,5.40
2023-01-27T08:02:24.111Z,5.40
2023-01-27T08:04:53.607Z,5.40
2023-01-27T08:07:25.981Z,5.40
2023-01-27T08:09:54.514Z,5.40
2023-01-27T08:12:21.901Z,5.50
2023-01-27T08:14:48.749Z,5.50
2023-01-27T08:17:18.301Z,5.50
2023-01-27T08:19:45.019Z,5.50
2023-01-27T08:22:11.844Z,5.50
2023-01-27T08:24:41.707Z,5.60
2023-01-27T08:27:08.456Z,5.60
2023-01-27T08:29:35.185Z,5.60
2023-01-27T08:32:02.327Z,5.60
2023-01-27T08:34:29.243Z,5.60
2023-01-27T08:36:56.197Z,5.60
2023-01-27T08:39:22.988Z,5.60
2023-01-27T08:41:49.881Z,5.60
2023-01-27T08:44:16.909Z,5.60
2023-01-27T08:46:43.975Z,5.60
2023-01-27T08:49:10.914Z,5.60
2023-01-27T08:51:37.733Z,5.60
2023-01-27T08:54:04.645Z,5.60
2023-01-27T08:56:31.463Z,5.60
2023-01-27T08:58:58.303Z,5.60
2023-01-27T09:01:25.434Z,5.60
2023-01-27T09:03:52.735Z,5.60
2023-01-27T09:06:24.550Z,5.60
2023-01-27T09:09:11.748Z,5.60
2023-01-27T09:11:41.683Z,5.60
2023-01-27T09:14:08.828Z,5.60
2023-01-27T09:16:35.723Z,5.60
2023-01-27T09:19:02.792Z,5.60
2023-01-27T09:21:29.867Z,5.60
2023-01-27T09:23:56.684Z,5.60
2023-01-27T09:26:23.585Z,5.60
2023-01-27T09:28:50.387Z,5.60
2023-01-27T09:31:17.978Z,5.60
2023-01-27T09:33:44.760Z,5.60
2023-01-27T09:36:15.645Z,5.60
2023-01-27T09:38:55.477Z,5.60
2023-01-27T09:41:43.235Z,5.60
2023-01-27T09:44:31.387Z,5.70
2023-01-27T09:47:14.213Z,5.70
2023-01-27T09:49:50.124Z,5.70
2023-01-27T09:52:46.399Z,5.70
2023-01-27T09:55:22.616Z,5.70
2023-01-27T09:58:30.529Z,5.70
2023-01-27T10:01:09.811Z,5.70
2023-01-27T10:03:49.638Z,5.70
2023-01-27T10:06:22.693Z,5.70
2023-01-27T10:09:19.093Z,5.70
2023-01-27T10:11:55.971Z,5.70
2023-01-27T10:14:50.752Z,5.70
2023-01-27T10:17:34.225Z,5.70
2023-01-27T10:20:49.538Z,5.70
2023-01-27T10:23:34.252Z,5.70
2023-01-27T10:26:18.653Z,5.70
2023-01-27T10:28:51.045Z,5.70
2023-01-27T10:31:27.317Z,5.80
2023-01-27T10:33:56.657Z,5.80
2023-01-27T10:36:46.664Z,5.80
2023-01-27T10:39:50.661Z,5.80
2023-01-27T10:42:24.140Z,5.80
2023-01-27T10:44:56.801Z,5.80
2023-01-27T10:47:52.919Z,5.90
2023-01-27T10:50:31.132Z,5.80
2023-01-27T10:53:06.557Z,5.80
2023-01-27T10:55:45.113Z,5.80
2023-01-27T10:58:33.673Z,5.90
2023-01-27T11:01:20.383Z,5.90
2023-01-27T11:04:00.705Z,5.90
2023-01-27T11:06:36.927Z,6.00
2023-01-27T11:09:17.284Z,6.00
2023-01-27T11:11:46.017Z,6.00
2023-01-27T11:14:34.368Z,6.00
2023-01-27T11:17:25.314Z,6.00
2023-01-27T11:20:17.692Z,6.10
2023-01-27T11:23:07.843Z,6.00
2023-01-27T11:25:55.189Z,6.10
2023-01-27T11:29:00.648Z,6.10
2023-01-27T11:31:55.213Z,6.10
2023-01-27T11:34:30.364Z,6.10
2023-01-27T11:36:57.588Z,6.10
2023-01-27T11:39:26.149Z,6.10
2023-01-27T11:41:58.088Z,6.10
2023-01-27T11:44:29.454Z,6.10
2023-01-27T11:46:59.763Z,6.10
2023-01-27T11:49:32.165Z,6.10
2023-01-27T11:52:20.726Z,6.00
2023-01-27T11:55:15.000Z,6.10
2023-01-27T11:57:44.436Z,6.10
2023-01-27T12:00:28.841Z,6.10
2023-01-27T12:03:18.588Z,6.10
2023-01-27T12:05:51.779Z,6.10
2023-01-27T12:08:40.162Z,6.10
2023-01-27T12:11:20.505Z,6.20
2023-01-27T12:13:58.023Z,6.20
2023-01-27T12:16:47.756Z,6.20
2023-01-27T12:19:35.833Z,6.30
2023-01-27T12:22:09.896Z,6.30
2023-01-27T12:24:40.510Z,6.30
2023-01-27T12:27:14.464Z,6.30
2023-01-27T12:29:49.598Z,6.30
2023-01-27T12:32:47.193Z,6.20
2023-01-27T12:35:37.617Z,6.30
2023-01-27T12:38:16.536Z,6.30
2023-01-27T12:40:46.340Z,6.30
2023-01-27T12:43:16.131Z,6.30
2023-01-27T12:45:47.318Z,6.30
2023-01-27T12:48:14.214Z,6.30
2023-01-27T12:50:42.391Z,6.40
2023-01-27T12:53:14.773Z,6.40
2023-01-27T12:55:46.517Z,6.40
2023-01-27T12:58:30.531Z,6.40
2023-01-27T13:01:01.731Z,6.40
2023-01-27T13:03:29.485Z,6.40
2023-01-27T13:05:58.731Z,6.40
2023-01-27T13:08:28.675Z,6.40
2023-01-27T13:11:01.505Z,6.40
2023-01-27T13:13:30.541Z,6.40
2023-01-27T13:16:00.428Z,6.40
2023-01-27T13:18:34.240Z,6.40
2023-01-27T13:21:17.518Z,6.40
2023-01-27T13:23:46.402Z,6.40
2023-01-27T13:26:23.891Z,6.40
2023-01-27T13:29:20.844Z,6.40
2023-01-27T13:31:53.784Z,6.40
2023-01-27T13:34:33.830Z,6.50
2023-01-27T13:37:21.984Z,6.40
2023-01-27T13:40:23.586Z,6.40
2023-01-27T13:43:12.461Z,6.40
2023-01-27T13:45:43.545Z,6.40
2023-01-27T13:48:10.215Z,6.40
2023-01-27T13:50:48.278Z,6.40
2023-01-27T13:53:18.872Z,6.50
2023-01-27T13:56:03.611Z,6.50
2023-01-27T13:58:55.003Z,6.50
2023-01-27T14:01:55.804Z,6.60
2023-01-27T14:04:31.426Z,6.60
2023-01-27T14:07:15.041Z,6.60
2023-01-27T14:09:56.758Z,6.60
2023-01-27T14:12:44.412Z,6.50
2023-01-27T14:15:41.917Z,6.50
2023-01-27T14:18:19.168Z,6.50
2023-01-27T14:21:13.705Z,6.50
2023-01-27T14:24:01.172Z,6.50
2023-01-27T14:26:43.409Z,6.40
2023-01-27T14:29:34.607Z,6.40
2023-01-27T14:32:21.535Z,6.40
2023-01-27T14:35:03.676Z,6.40
2023-01-27T14:37:53.689Z,6.40
2023-01-27T14:40:44.430Z,6.40
2023-01-27T14:43:18.394Z,6.40
2023-01-27T14:46:19.859Z,6.40
2023-01-27T14:49:01.537Z,6.40
2023-01-27T14:51:53.840Z,6.50
2023-01-27T14:54:45.261Z,6.50
2023-01-27T14:57:35.168Z,6.50
2023-01-27T15:00:23.247Z,6.40
2023-01-27T15:03:20.426Z,6.40
2023-01-27T15:05:58.286Z,6.40
2023-01-27T15:08:33.374Z,6.40
2023-01-27T15:11:23.556Z,6.40
2023-01-27T15:14:17.378Z,6.40
2023-01-27T15:17:14.986Z,6.40
2023-01-27T15:19:55.562Z,6.30
2023-01-27T15:22:35.087Z,6.30
2023-01-27T15:25:37.219Z,6.30
2023-01-27T15:28:04.843Z,6.30
2023-01-27T15:30:37.081Z,6.30
2023-01-27T15:33:23.793Z,6.30
2023-01-27T15:36:18.212Z,6.30
2023-01-27T15:39:15.416Z,6.20
2023-01-27T15:42:03.928Z,6.20
2023-01-27T15:44:33.069Z,6.20
2023-01-27T15:47:26.293Z,6.20
2023-01-27T15:50:19.034Z,6.20
2023-01-27T15:52:47.987Z,6.20
2023-01-27T15:55:26.420Z,6.10
2023-01-27T15:58:02.852Z,6.10
2023-01-27T16:00:33.926Z,6.10
2023-01-27T16:03:03.093Z,6.10
2023-01-27T16:05:36.761Z,6.10
2023-01-27T16:08:10.802Z,6.00
2023-01-27T16:10:38.317Z,6.00
2023-01-27T16:13:27.536Z,6.00
2023-01-27T16:16:18.959Z,6.00
2023-01-27T16:19:00.340Z,6.00
2023-01-27T16:21:42.204Z,5.90
2023-01-27T16:24:26.792Z,5.90
2023-01-27T16:27:04.199Z,5.90
2023-01-27T16:29:57.687Z,5.90
2023-01-27T16:32:36.528Z,5.90
2023-01-27T16:35:06.101Z,5.90
2023-01-27T16:37:37.696Z,5.90
2023-01-27T16:40:15.799Z,5.90
2023-01-27T16:42:53.718Z,5.90
2023-01-27T16:45:26.544Z,5.80
2023-01-27T16:48:03.770Z,5.80
2023-01-27T16:50:39.818Z,5.80
2023-01-27T16:53:24.941Z,5.90
2023-01-27T16:56:04.276Z,5.80
2023-01-27T16:58:45.837Z,5.80
2023-01-27T17:01:23.650Z,5.80
2023-01-27T17:03:55.307Z,5.80
2023-01-27T17:06:24.720Z,5.80
2023-01-27T17:08:54.130Z,5.80
2023-01-27T17:11:32.939Z,5.80
2023-01-27T17:14:21.329Z,5.80
2023-01-27T17:16:58.925Z,5.80
2023-01-27T17:19:32.153Z,5.80
2023-01-27T17:22:10.164Z,5.80
2023-01-27T17:24:43.720Z,5.80
2023-01-27T17:27:24.073Z,5.80
2023-01-27T17:29:54.943Z,5.80
2023-01-27T17:32:40.170Z,5.70
2023-01-27T17:35:22.283Z,5.70
2023-01-27T17:37:52.354Z,5.70
2023-01-27T17:40:22.284Z,5.70
2023-01-27T17:42:49.842Z,5.70
2023-01-27T17:45:34.635Z,5.70
2023-01-27T17:48:02.187Z,5.70
2023-01-27T17:50:37.326Z,5.70
2023-01-27T17:53:10.268Z,5.70
2023-01-27T17:55:38.054Z,5.70
2023-01-27T17:58:07.208Z,5.70
2023-01-27T18:00:40.427Z,5.70
2023-01-27T18:03:23.772Z,5.70
2023-01-27T18:05:55.664Z,5.70
2023-01-27T18:08:23.579Z,5.70
2023-01-27T18:10:51.129Z,5.70
2023-01-27T18:13:27.293Z,5.60
2023-01-27T18:16:00.448Z,5.60
2023-01-27T18:18:32.204Z,5.60
2023-01-27T18:21:08.200Z,5.60
2023-01-27T18:23:59.196Z,5.60
2023-01-27T18:26:30.582Z,5.60
2023-01-27T18:29:26.793Z,5.60
2023-01-27T18:31:57.075Z,5.60
2023-01-27T18:34:32.891Z,5.60
2023-01-27T18:37:29.890Z,5.60
2023-01-27T18:39:59.081Z,5.60
2023-01-27T18:42:29.060Z,5.60
2023-01-27T18:44:56.919Z,5.50
2023-01-27T18:47:34.444Z,5.50
2023-01-27T18:50:10.355Z,5.50
2023-01-27T18:52:37.823Z,5.50
2023-01-27T18:55:17.171Z,5.50
2023-01-27T18:57:45.570Z,5.50
2023-01-27T19:00:16.269Z,5.50
2023-01-27T19:02:46.454Z,5.50
2023-01-27T19:05:17.068Z,5.40
2023-01-27T19:07:43.857Z,5.40
2023-01-27T19:10:25.387Z,5.40
2023-01-27T19:12:58.583Z,5.40
2023-01-27T19:15:30.565Z,5.40
2023-01-27T19:17:59.013Z,5.40
2023-01-27T19:20:30.904Z,5.40
2023-01-27T19:22:58.942Z,5.40
2023-01-27T19:25:29.507Z,5.40
2023-01-27T19:28:04.864Z,5.40
2023-01-27T19:30:37.039Z,5.40
2023-01-27T19:33:13.261Z,5.40
2023-01-27T19:35:54.645Z,5.40
2023-01-27T19:38:26.165Z,5.40
2023-01-27T19:40:53.093Z,5.40
2023-01-27T19:43:19.839Z,5.40
2023-01-27T19:45:48.257Z,5.40
2023-01-27T19:48:18.235Z,5.30
2023-01-27T19:50:48.661Z,5.30
2023-01-27T19:53:16.791Z,5.30
2023-01-27T19:55:44.352Z,5.30
2023-01-27T19:58:23.252Z,5.30
2023-01-27T20:00:50.176Z,5.30
2023-01-27T20:03:20.109Z,5.20
2023-01-27T20:05:47.530Z,5.20
2023-01-27T20:08:16.741Z,5.20
2023-01-27T20:10:44.307Z,5.20
2023-01-27T20:13:15.633Z,5.20
2023-01-27T20:15:46.158Z,5.20
2023-01-27T20:18:17.342Z,5.20
2023-01-27T20:20:45.357Z,5.20
2023-01-27T20:23:14.166Z,5.20
2023-01-27T20:25:40.927Z,5.10
2023-01-27T20:28:08.879Z,5.10
2023-01-27T20:30:36.168Z,5.10
2023-01-27T20:33:05.155Z,5.10
2023-01-27T20:35:32.162Z,5.10
2023-01-27T20:37:59.120Z,5.10
2023-01-27T20:40:28.285Z,5.10
2023-01-27T20:42:57.798Z,5.10
2023-01-27T20:45:24.531Z,5.10
2023-01-27T20:47:53.483Z,5.20
2023-01-27T20:50:22.935Z,5.10
2023-01-27T20:52:51.203Z,5.10
2023-01-27T20:55:19.603Z,5.10
2023-01-27T20:57:47.067Z,5.10
2023-01-27T21:00:19.851Z,5.10
2023-01-27T21:02:47.176Z,5.10
2023-01-27T21:05:14.732Z,5.10
2023-01-27T21:07:41.727Z,5.10
2023-01-27T21:10:12.018Z,5.10
2023-01-27T21:12:38.882Z,5.10
2023-01-27T21:15:09.613Z,5.10
2023-01-27T21:17:37.035Z,5.10
2023-01-27T21:20:06.954Z,5.10
2023-01-27T21:22:34.551Z,5.10
2023-01-27T21:25:01.488Z,5.10
2023-01-27T21:27:28.188Z,5.10
2023-01-27T21:29:54.943Z,5.10
2023-01-27T21:32:21.741Z,5.10
2023-01-27T21:34:48.457Z,5.10
2023-01-27T21:37:15.149Z,5.10
2023-01-27T21:39:41.965Z,5.10
2023-01-27T21:42:13.349Z,5.00
2023-01-27T21:45:00.948Z,5.00
2023-01-27T21:47:27.792Z,5.00
2023-01-27T21:50:04.489Z,5.00
2023-01-27T21:52:48.610Z,5.00
2023-01-27T21:55:23.797Z,5.00
2023-01-27T21:57:55.241Z,5.00
2023-01-27T22:00:27.227Z,5.00
2023-01-27T22:03:02.872Z,5.00
2023-01-27T22:05:31.798Z,4.90
2023-01-27T22:07:59.171Z,4.90
2023-01-27T22:10:28.740Z,4.90
2023-01-27T22:13:04.215Z,4.90
2023-01-27T22:15:32.121Z,4.90
2023-01-27T22:17:59.705Z,4.80
2023-01-27T22:20:27.933Z,4.80
2023-01-27T22:22:54.898Z,4.80
2023-01-27T22:25:22.137Z,4.80
2023-01-27T22:27:48.969Z,4.80
2023-01-27T22:30:18.269Z,4.80
2023-01-27T22:32:46.518Z,4.80
2023-01-27T22:35:15.595Z,4.80
2023-01-27T22:37:43.255Z,4.80
2023-01-27T22:40:11.667Z,4.80
2023-01-27T22:42:40.188Z,4.80
2023-01-27T22:45:09.002Z,4.70
2023-01-27T22:47:36.011Z,4.70
2023-01-27T22:50:03.333Z,4.70
2023-01-27T22:52:30.049Z,4.70
2023-01-27T22:54:56.878Z,4.70
2023-01-27T22:57:25.433Z,4.70
2023-01-27T22:59:52.170Z,4.70
2023-01-27T23:02:19.089Z,4.70
2023-01-27T23:04:45.983Z,4.70
2023-01-27T23:07:12.803Z,4.70
2023-01-27T23:09:39.580Z,4.70
2023-01-27T23:12:06.842Z,4.70
2023-01-27T23:14:34.569Z,4.70
2023-01-27T23:17:01.309Z,4.60
2023-01-27T23:19:28.687Z,4.60
2023-01-27T23:21:55.463Z,4.60
2023-01-27T23:24:22.300Z,4.60
2023-01-27T23:26:49.399Z,4.60
2023-01-27T23:29:24.713Z,4.60
2023-01-27T23:31:52.744Z,4.60
2023-01-27T23:34:20.174Z,4.60
2023-01-27T23:36:47.871Z,4.60
2023-01-27T23:39:16.570Z,4.60
2023-01-27T23:41:43.486Z,4.60
2023-01-27T23:44:13.792Z,4.60
2023-01-27T23:46:41.012Z,4.60
2023-01-27T23:49:10.157Z,4.60
2023-01-27T23:51:37.111Z,4.60
2023-01-27T23:54:07.313Z,4.60
2023-01-27T23:56:34.534Z,4.60
2023-01-27T23:59:01.372Z,4.60
